sensor_id;sensor_type;location;lat;lon;timestamp;pressure;altitude;pressure_sealevel;temperature;humidity
76060;BME280;64759;52.220;5.170;2023-03-01T00:01:26;103166.03;;;3.34;69.48
76060;BME280;64759;52.220;5.170;2023-03-01T00:03:53;103178.84;;;3.34;69.42
76060;BME280;64759;52.220;5.170;2023-03-01T00:06:20;103178.22;;;3.24;69.52
76060;BME280;64759;52.220;5.170;2023-03-01T00:08:46;103173.97;;;3.23;69.88
76060;BME280;64759;52.220;5.170;2023-03-01T00:11:17;103173.13;;;3.23;69.11
76060;BME280;64759;52.220;5.170;2023-03-01T00:13:43;103171.53;;;3.19;69.65
76060;BME280;64759;52.220;5.170;2023-03-01T00:16:12;103177.56;;;3.16;69.61
76060;BME280;64759;52.220;5.170;2023-03-01T00:18:38;103179.28;;;3.16;69.24
76060;BME280;64759;52.220;5.170;2023-03-01T00:21:04;103167.34;;;3.15;69.25
76060;BME280;64759;52.220;5.170;2023-03-01T00:23:30;103171.69;;;3.13;69.07
76060;BME280;64759;52.220;5.170;2023-03-01T00:25:56;103167.50;;;3.09;69.06
76060;BME280;64759;52.220;5.170;2023-03-01T00:28:21;103161.63;;;3.05;69.37
76060;BME280;64759;52.220;5.170;2023-03-01T00:30:47;103160.81;;;3.03;69.60
76060;BME280;64759;52.220;5.170;2023-03-01T00:33:12;103165.25;;;2.95;69.10
76060;BME280;64759;52.220;5.170;2023-03-01T00:35:38;103159.28;;;2.96;69.48
76060;BME280;64759;52.220;5.170;2023-03-01T00:38:04;103154.22;;;2.95;69.63
76060;BME280;64759;52.220;5.170;2023-03-01T00:40:32;103151.66;;;2.95;69.75
76060;BME280;64759;52.220;5.170;2023-03-01T00:42:57;103155.84;;;2.97;69.52
76060;BME280;64759;52.220;5.170;2023-03-01T00:45:23;103149.97;;;2.94;69.19
76060;BME280;64759;52.220;5.170;2023-03-01T00:47:50;103160.94;;;2.99;69.63
76060;BME280;64759;52.220;5.170;2023-03-01T00:50:16;103147.34;;;2.97;68.83
76060;BME280;64759;52.220;5.170;2023-03-01T00:52:41;103161.88;;;2.95;68.89
76060;BME280;64759;52.220;5.170;2023-03-01T00:55:07;103151.91;;;2.83;69.57
76060;BME280;64759;52.220;5.170;2023-03-01T00:57:33;103153.81;;;2.75;69.82
76060;BME280;64759;52.220;5.170;2023-03-01T00:59:58;103158.22;;;2.70;70.10
76060;BME280;64759;52.220;5.170;2023-03-01T01:02:24;103155.66;;;2.68;70.66
76060;BME280;64759;52.220;5.170;2023-03-01T01:04:50;103150.59;;;2.67;70.16
76060;BME280;64759;52.220;5.170;2023-03-01T01:07:16;103150.59;;;2.67;70.09
76060;BME280;64759;52.220;5.170;2023-03-01T01:09:41;103145.47;;;2.67;69.98
76060;BME280;64759;52.220;5.170;2023-03-01T01:12:07;103140.38;;;2.67;70.15
76060;BME280;64759;52.220;5.170;2023-03-01T01:14:33;103138.72;;;2.64;70.86
76060;BME280;64759;52.220;5.170;2023-03-01T01:16:59;103132.75;;;2.63;70.62
76060;BME280;64759;52.220;5.170;2023-03-01T01:19:25;103121.75;;;2.60;70.71
76060;BME280;64759;52.220;5.170;2023-03-01T01:21:51;103121.94;;;2.52;70.99
76060;BME280;64759;52.220;5.170;2023-03-01T01:24:18;103132.34;;;2.45;71.11
76060;BME280;64759;52.220;5.170;2023-03-01T01:26:44;103125.56;;;2.42;71.29
76060;BME280;64759;52.220;5.170;2023-03-01T01:29:11;103125.66;;;2.38;71.73
76060;BME280;64759;52.220;5.170;2023-03-01T01:31:37;103119.94;;;2.27;72.21
76060;BME280;64759;52.220;5.170;2023-03-01T01:34:06;103113.22;;;2.21;72.14
76060;BME280;64759;52.220;5.170;2023-03-01T01:36:32;103115.81;;;2.20;71.82
76060;BME280;64759;52.220;5.170;2023-03-01T01:38:58;103112.50;;;2.16;72.09
76060;BME280;64759;52.220;5.170;2023-03-01T01:41:26;103108.94;;;2.23;71.37
76060;BME280;64759;52.220;5.170;2023-03-01T01:44:26;103106.34;;;2.25;71.20
76060;BME280;64759;52.220;5.170;2023-03-01T01:47:06;103109.53;;;2.34;71.25
76060;BME280;64759;52.220;5.170;2023-03-01T01:49:53;103105.13;;;2.41;70.00
76060;BME280;64759;52.220;5.170;2023-03-01T01:52:45;103100.91;;;2.38;70.38
76060;BME280;64759;52.220;5.170;2023-03-01T01:55:20;103096.75;;;2.34;70.05
76060;BME280;64759;52.220;5.170;2023-03-01T01:57:51;103104.59;;;2.27;71.10
76060;BME280;64759;52.220;5.170;2023-03-01T02:00:20;103109.06;;;2.17;70.66
76060;BME280;64759;52.220;5.170;2023-03-01T02:02:48;103104.84;;;2.15;71.51
76060;BME280;64759;52.220;5.170;2023-03-01T02:05:16;103102.31;;;2.15;71.41
76060;BME280;64759;52.220;5.170;2023-03-01T02:07:45;103099.00;;;2.11;71.20
76060;BME280;64759;52.220;5.170;2023-03-01T02:10:11;103099.69;;;2.18;71.43
76060;BME280;64759;52.220;5.170;2023-03-01T02:12:38;103102.13;;;2.22;71.49
76060;BME280;64759;52.220;5.170;2023-03-01T02:15:04;103099.47;;;2.28;70.58
76060;BME280;64759;52.220;5.170;2023-03-01T02:17:31;103100.22;;;2.32;70.11
76060;BME280;64759;52.220;5.170;2023-03-01T02:20:03;103084.94;;;2.30;69.94
76060;BME280;64759;52.220;5.170;2023-03-01T02:22:33;103093.53;;;2.26;70.07
76060;BME280;64759;52.220;5.170;2023-03-01T02:30:28;103092.97;;;2.12;70.05
76060;BME280;64759;52.220;5.170;2023-03-01T02:32:56;103093.72;;;2.17;70.27
76060;BME280;64759;52.220;5.170;2023-03-01T02:35:30;103095.53;;;2.12;70.22
76060;BME280;64759;52.220;5.170;2023-03-01T02:37:58;103087.91;;;2.11;70.21
76060;BME280;64759;52.220;5.170;2023-03-01T02:40:28;103087.31;;;1.98;70.78
76060;BME280;64759;52.220;5.170;2023-03-01T02:42:57;103073.09;;;1.85;71.01
76060;BME280;64759;52.220;5.170;2023-03-01T02:45:26;103060.59;;;1.74;70.83
76060;BME280;64759;52.220;5.170;2023-03-01T02:47:56;103074.22;;;1.73;71.34
76060;BME280;64759;52.220;5.170;2023-03-01T02:52:59;103068.50;;;1.61;71.48
76060;BME280;64759;52.220;5.170;2023-03-01T02:55:27;103065.94;;;1.61;71.98
76060;BME280;64759;52.220;5.170;2023-03-01T02:57:53;103067.72;;;1.57;71.64
76060;BME280;64759;52.220;5.170;2023-03-01T03:00:23;103068.69;;;1.52;71.99
76060;BME280;64759;52.220;5.170;2023-03-01T03:02:52;103065.25;;;1.53;72.24
76060;BME280;64759;52.220;5.170;2023-03-01T03:05:21;103063.53;;;1.53;71.96
76060;BME280;64759;52.220;5.170;2023-03-01T03:07:51;103055.09;;;1.50;72.36
76060;BME280;64759;52.220;5.170;2023-03-01T03:10:22;103056.78;;;1.51;72.29
76060;BME280;64759;52.220;5.170;2023-03-01T03:13:04;103060.97;;;1.55;72.45
76060;BME280;64759;52.220;5.170;2023-03-01T03:15:31;103053.31;;;1.55;71.92
76060;BME280;64759;52.220;5.170;2023-03-01T03:17:58;103055.06;;;1.51;72.46
76060;BME280;64759;52.220;5.170;2023-03-01T03:20:26;103055.09;;;1.50;72.05
76060;BME280;64759;52.220;5.170;2023-03-01T03:22:55;103045.75;;;1.49;72.42
76060;BME280;64759;52.220;5.170;2023-03-01T03:25:22;103046.56;;;1.52;71.92
76060;BME280;64759;52.220;5.170;2023-03-01T03:27:50;103045.69;;;1.52;71.74
76060;BME280;64759;52.220;5.170;2023-03-01T03:30:23;103037.19;;;1.51;71.17
76060;BME280;64759;52.220;5.170;2023-03-01T03:32:49;103040.66;;;1.49;71.75
76060;BME280;64759;52.220;5.170;2023-03-01T03:35:21;103039.03;;;1.45;71.54
76060;BME280;64759;52.220;5.170;2023-03-01T03:37:48;103029.56;;;1.50;71.13
76060;BME280;64759;52.220;5.170;2023-03-01T03:40:39;103023.78;;;1.42;72.06
76060;BME280;64759;52.220;5.170;2023-03-01T03:43:09;103030.63;;;1.38;71.29
76060;BME280;64759;52.220;5.170;2023-03-01T03:45:35;103032.38;;;1.38;72.02
76060;BME280;64759;52.220;5.170;2023-03-01T03:48:02;103034.09;;;1.36;71.94
76060;BME280;64759;52.220;5.170;2023-03-01T03:50:28;103028.16;;;1.33;71.41
76060;BME280;64759;52.220;5.170;2023-03-01T03:52:54;103022.13;;;1.39;71.23
76060;BME280;64759;52.220;5.170;2023-03-01T03:55:19;103027.19;;;1.41;70.93
76060;BME280;64759;52.220;5.170;2023-03-01T03:57:46;103030.63;;;1.40;71.32
76060;BME280;64759;52.220;5.170;2023-03-01T04:00:21;103025.66;;;1.30;71.66
76060;BME280;64759;52.220;5.170;2023-03-01T04:02:47;103020.66;;;1.27;71.64
76060;BME280;64759;52.220;5.170;2023-03-01T04:05:15;103025.91;;;1.20;71.99
76060;BME280;64759;52.220;5.170;2023-03-01T04:07:42;103029.31;;;1.19;71.98
76060;BME280;64759;52.220;5.170;2023-03-01T04:10:13;103026.78;;;1.17;71.88
76060;BME280;64759;52.220;5.170;2023-03-01T04:12:39;103025.91;;;1.18;71.67
76060;BME280;64759;52.220;5.170;2023-03-01T04:15:06;103024.25;;;1.17;72.51
76060;BME280;64759;52.220;5.170;2023-03-01T04:17:42;103025.09;;;1.18;71.38
76060;BME280;64759;52.220;5.170;2023-03-01T04:20:10;103025.00;;;1.21;71.54
76060;BME280;64759;52.220;5.170;2023-03-01T04:22:39;103025.91;;;1.18;72.06
76060;BME280;64759;52.220;5.170;2023-03-01T04:25:06;103025.09;;;1.16;72.31
76060;BME280;64759;52.220;5.170;2023-03-01T04:27:35;103020.00;;;1.16;71.41
76060;BME280;64759;52.220;5.170;2023-03-01T04:30:04;103022.59;;;1.13;72.11
76060;BME280;64759;52.220;5.170;2023-03-01T04:32:31;103028.59;;;1.12;71.83
76060;BME280;64759;52.220;5.170;2023-03-01T04:34:57;103026.88;;;1.13;71.54
76060;BME280;64759;52.220;5.170;2023-03-01T04:37:22;103025.00;;;1.21;70.88
76060;BME280;64759;52.220;5.170;2023-03-01T04:39:49;103024.16;;;1.22;71.59
76060;BME280;64759;52.220;5.170;2023-03-01T04:42:15;103019.06;;;1.20;70.87
76060;BME280;64759;52.220;5.170;2023-03-01T04:44:42;103014.09;;;1.14;71.52
76060;BME280;64759;52.220;5.170;2023-03-01T04:47:07;103018.38;;;1.12;70.99
76060;BME280;64759;52.220;5.170;2023-03-01T04:49:33;103022.63;;;1.12;71.06
76060;BME280;64759;52.220;5.170;2023-03-01T04:51:58;103016.72;;;1.08;70.79
76060;BME280;64759;52.220;5.170;2023-03-01T04:54:32;103017.78;;;0.98;71.13
76060;BME280;64759;52.220;5.170;2023-03-01T04:56:58;103021.88;;;1.07;70.91
76060;BME280;64759;52.220;5.170;2023-03-01T04:59:23;103012.31;;;1.18;70.57
76060;BME280;64759;52.220;5.170;2023-03-01T05:01:50;103008.13;;;1.15;70.23
76060;BME280;64759;52.220;5.170;2023-03-01T05:04:16;103008.97;;;1.14;70.14
76060;BME280;64759;52.220;5.170;2023-03-01T05:06:42;103001.38;;;1.11;70.04
76060;BME280;64759;52.220;5.170;2023-03-01T05:09:07;102997.16;;;1.09;69.69
76060;BME280;64759;52.220;5.170;2023-03-01T05:11:33;102990.41;;;1.06;70.26
76060;BME280;64759;52.220;5.170;2023-03-01T05:14:05;102988.75;;;1.05;70.41
76060;BME280;64759;52.220;5.170;2023-03-01T05:16:31;102997.22;;;1.07;69.79
76060;BME280;64759;52.220;5.170;2023-03-01T05:18:57;102986.25;;;1.02;70.31
76060;BME280;64759;52.220;5.170;2023-03-01T05:21:23;102991.38;;;0.99;69.88
76060;BME280;64759;52.220;5.170;2023-03-01T05:23:49;102987.22;;;0.95;70.88
76060;BME280;64759;52.220;5.170;2023-03-01T05:26:16;102977.25;;;0.83;70.78
76060;BME280;64759;52.220;5.170;2023-03-01T05:28:43;102977.28;;;0.80;70.95
76060;BME280;64759;52.220;5.170;2023-03-01T05:31:08;102970.56;;;0.76;71.07
76060;BME280;64759;52.220;5.170;2023-03-01T05:33:39;102969.78;;;0.73;71.84
76060;BME280;64759;52.220;5.170;2023-03-01T05:36:06;102962.16;;;0.70;71.86
76060;BME280;64759;52.220;5.170;2023-03-01T05:38:32;102961.31;;;0.69;72.06
76060;BME280;64759;52.220;5.170;2023-03-01T05:40:58;102962.22;;;0.66;71.57
76060;BME280;64759;52.220;5.170;2023-03-01T05:43:23;102949.59;;;0.60;72.12
76060;BME280;64759;52.220;5.170;2023-03-01T05:45:49;102949.38;;;0.73;71.55
76060;BME280;64759;52.220;5.170;2023-03-01T05:48:15;102949.19;;;0.82;71.12
76060;BME280;64759;52.220;5.170;2023-03-01T05:50:44;102949.16;;;0.85;70.76
76060;BME280;64759;52.220;5.170;2023-03-01T05:53:16;102940.59;;;0.87;70.77
76060;BME280;64759;52.220;5.170;2023-03-01T05:55:43;102949.81;;;0.94;70.31
76060;BME280;64759;52.220;5.170;2023-03-01T05:58:13;102944.75;;;0.93;69.87
76060;BME280;64759;52.220;5.170;2023-03-01T06:00:42;102940.56;;;0.89;70.19
76060;BME280;64759;52.220;5.170;2023-03-01T06:03:10;102946.66;;;0.82;71.32
76060;BME280;64759;52.220;5.170;2023-03-01T06:05:37;102946.78;;;0.74;71.58
76060;BME280;64759;52.220;5.170;2023-03-01T06:08:03;102955.19;;;0.79;71.38
76060;BME280;64759;52.220;5.170;2023-03-01T06:10:29;102946.78;;;0.74;72.21
76060;BME280;64759;52.220;5.170;2023-03-01T06:12:55;102951.06;;;0.74;71.79
76060;BME280;64759;52.220;5.170;2023-03-01T06:15:21;102946.06;;;0.68;72.01
76060;BME280;64759;52.220;5.170;2023-03-01T06:17:46;102942.03;;;0.56;72.29
76060;BME280;64759;52.220;5.170;2023-03-01T06:20:16;102945.53;;;0.49;73.11
76060;BME280;64759;52.220;5.170;2023-03-01T06:22:42;102949.81;;;0.48;73.48
76060;BME280;64759;52.220;5.170;2023-03-01T06:25:09;102947.22;;;0.50;73.36
76060;BME280;64759;52.220;5.170;2023-03-01T06:27:35;102951.53;;;0.45;73.55
76060;BME280;64759;52.220;5.170;2023-03-01T06:30:01;102949.00;;;0.45;73.56
76060;BME280;64759;52.220;5.170;2023-03-01T06:32:26;102949.81;;;0.47;73.56
76060;BME280;64759;52.220;5.170;2023-03-01T06:34:52;102954.00;;;0.49;73.61
76060;BME280;64759;52.220;5.170;2023-03-01T06:37:17;102954.81;;;0.53;73.59
76060;BME280;64759;52.220;5.170;2023-03-01T06:39:43;102954.81;;;0.53;72.82
76060;BME280;64759;52.220;5.170;2023-03-01T06:42:08;102953.97;;;0.54;73.97
76060;BME280;64759;52.220;5.170;2023-03-01T06:44:35;102956.44;;;0.58;73.25
76060;BME280;64759;52.220;5.170;2023-03-01T06:47:01;102954.72;;;0.57;72.98
76060;BME280;64759;52.220;5.170;2023-03-01T06:49:26;102958.97;;;0.58;73.80
76060;BME280;64759;52.220;5.170;2023-03-01T06:51:52;102957.19;;;0.62;74.15
76060;BME280;64759;52.220;5.170;2023-03-01T06:54:17;102952.94;;;0.62;74.24
76060;BME280;64759;52.220;5.170;2023-03-01T06:56:43;102956.25;;;0.68;73.32
76060;BME280;64759;52.220;5.170;2023-03-01T06:59:11;102955.28;;;0.76;73.66
76060;BME280;64759;52.220;5.170;2023-03-01T07:01:36;102950.81;;;0.87;73.67
76060;BME280;64759;52.220;5.170;2023-03-01T07:04:02;102957.31;;;1.02;72.83
76060;BME280;64759;52.220;5.170;2023-03-01T07:06:27;102943.53;;;1.12;72.39
76060;BME280;64759;52.220;5.170;2023-03-01T07:08:53;102950.16;;;1.20;72.29
76060;BME280;64759;52.220;5.170;2023-03-01T07:11:18;102953.50;;;1.24;72.21
76060;BME280;64759;52.220;5.170;2023-03-01T07:13:43;102955.16;;;1.26;72.58
76060;BME280;64759;52.220;5.170;2023-03-01T07:16:09;102958.34;;;1.38;71.98
76060;BME280;64759;52.220;5.170;2023-03-01T07:18:34;102953.94;;;1.43;72.15
76060;BME280;64759;52.220;5.170;2023-03-01T07:21:07;102955.75;;;1.39;72.93
76060;BME280;64759;52.220;5.170;2023-03-01T07:23:33;102951.31;;;1.47;72.69
76060;BME280;64759;52.220;5.170;2023-03-01T07:25:58;102971.59;;;1.53;73.39
76060;BME280;64759;52.220;5.170;2023-03-01T07:28:24;102965.75;;;1.50;73.03
76060;BME280;64759;52.220;5.170;2023-03-01T07:30:50;102967.44;;;1.49;74.06
76060;BME280;64759;52.220;5.170;2023-03-01T07:33:17;102966.56;;;1.50;74.28
76060;BME280;64759;52.220;5.170;2023-03-01T07:35:42;102969.06;;;1.53;74.09
76060;BME280;64759;52.220;5.170;2023-03-01T07:38:08;102973.88;;;1.67;74.01
76060;BME280;64759;52.220;5.170;2023-03-01T07:40:33;102971.22;;;1.71;73.31
76060;BME280;64759;52.220;5.170;2023-03-01T07:42:59;102961.88;;;1.72;73.78
76060;BME280;64759;52.220;5.170;2023-03-01T07:45:25;102963.31;;;1.82;73.80
76060;BME280;64759;52.220;5.170;2023-03-01T07:47:51;102964.97;;;1.84;73.32
76060;BME280;64759;52.220;5.170;2023-03-01T07:50:19;102970.00;;;1.89;73.11
76060;BME280;64759;52.220;5.170;2023-03-01T07:52:46;102965.53;;;1.98;73.34
76060;BME280;64759;52.220;5.170;2023-03-01T07:55:11;102967.91;;;2.05;73.42
76060;BME280;64759;52.220;5.170;2023-03-01T07:57:37;102964.34;;;2.12;73.06
76060;BME280;64759;52.220;5.170;2023-03-01T08:00:03;102966.88;;;2.13;72.28
76060;BME280;64759;52.220;5.170;2023-03-01T08:02:37;102973.53;;;2.20;72.66
76060;BME280;64759;52.220;5.170;2023-03-01T08:05:03;102969.09;;;2.28;72.42
76060;BME280;64759;52.220;5.170;2023-03-01T08:07:28;102966.28;;;2.37;71.50
76060;BME280;64759;52.220;5.170;2023-03-01T08:09:54;102974.81;;;2.38;71.47
76060;BME280;64759;52.220;5.170;2023-03-01T08:12:19;102966.22;;;2.40;70.94
76060;BME280;64759;52.220;5.170;2023-03-01T08:14:44;102965.22;;;2.46;70.30
76060;BME280;64759;52.220;5.170;2023-03-01T08:17:10;102970.31;;;2.47;70.13
76060;BME280;64759;52.220;5.170;2023-03-01T08:19:35;102971.94;;;2.50;70.57
76060;BME280;64759;52.220;5.170;2023-03-01T08:22:01;102975.25;;;2.55;70.46
76060;BME280;64759;52.220;5.170;2023-03-01T08:24:27;102971.72;;;2.59;70.01
76060;BME280;64759;52.220;5.170;2023-03-01T08:26:53;102971.72;;;2.59;70.20
76060;BME280;64759;52.220;5.170;2023-03-01T08:29:18;102962.09;;;2.69;69.37
76060;BME280;64759;52.220;5.170;2023-03-01T08:31:44;102962.66;;;2.80;68.36
76060;BME280;64759;52.220;5.170;2023-03-01T08:34:12;102961.66;;;2.85;67.10
76060;BME280;64759;52.220;5.170;2023-03-01T08:36:40;102962.34;;;2.92;66.46
76060;BME280;64759;52.220;5.170;2023-03-01T08:39:06;102958.88;;;2.93;66.74
76060;BME280;64759;52.220;5.170;2023-03-01T08:41:32;102955.97;;;3.06;66.52
76060;BME280;64759;52.220;5.170;2023-03-01T08:43:58;102956.13;;;3.31;67.26
76060;BME280;64759;52.220;5.170;2023-03-01T08:46:27;102949.50;;;4.09;65.04
76060;BME280;64759;52.220;5.170;2023-03-01T08:48:53;102953.97;;;4.79;62.74
76060;BME280;64759;52.220;5.170;2023-03-01T08:51:20;102953.88;;;5.30;61.38
76060;BME280;64759;52.220;5.170;2023-03-01T08:53:47;102949.19;;;5.86;58.98
76060;BME280;64759;52.220;5.170;2023-03-01T08:56:13;102940.63;;;6.07;57.51
76060;BME280;64759;52.220;5.170;2023-03-01T08:58:39;102947.38;;;6.31;57.79
76060;BME280;64759;52.220;5.170;2023-03-01T09:01:12;102946.16;;;6.60;55.40
76060;BME280;64759;52.220;5.170;2023-03-01T09:03:38;102944.38;;;6.81;55.02
76060;BME280;64759;52.220;5.170;2023-03-01T09:06:06;102940.13;;;7.00;55.17
76060;BME280;64759;52.220;5.170;2023-03-01T09:08:35;102946.69;;;7.25;55.02
76060;BME280;64759;52.220;5.170;2023-03-01T09:11:05;102940.13;;;7.74;54.29
76060;BME280;64759;52.220;5.170;2023-03-01T09:13:31;102931.00;;;7.67;52.86
76060;BME280;64759;52.220;5.170;2023-03-01T09:15:57;102931.34;;;7.78;52.52
76060;BME280;64759;52.220;5.170;2023-03-01T09:18:23;102927.28;;;8.09;51.57
76060;BME280;64759;52.220;5.170;2023-03-01T09:20:49;102918.03;;;8.22;52.23
76060;BME280;64759;52.220;5.170;2023-03-01T09:23:14;102920.53;;;8.75;50.97
76060;BME280;64759;52.220;5.170;2023-03-01T09:25:42;102907.72;;;9.37;48.26
76060;BME280;64759;52.220;5.170;2023-03-01T09:28:08;102896.53;;;9.68;47.19
76060;BME280;64759;52.220;5.170;2023-03-01T09:30:36;102906.25;;;9.94;43.93
76060;BME280;64759;52.220;5.170;2023-03-01T09:33:01;102898.31;;;9.97;42.77
76060;BME280;64759;52.220;5.170;2023-03-01T09:35:26;102900.88;;;9.67;43.24
76060;BME280;64759;52.220;5.170;2023-03-01T09:37:53;102897.78;;;10.06;43.66
76060;BME280;64759;52.220;5.170;2023-03-01T09:40:21;102901.13;;;10.38;42.37
76060;BME280;64759;52.220;5.170;2023-03-01T09:45:29;102907.72;;;10.58;41.93
76060;BME280;64759;52.220;5.170;2023-03-01T09:47:59;102917.06;;;10.46;42.22
76060;BME280;64759;52.220;5.170;2023-03-01T09:50:29;102915.09;;;10.49;42.46
76060;BME280;64759;52.220;5.170;2023-03-01T09:53:03;102920.50;;;10.61;41.82
76060;BME280;64759;52.220;5.170;2023-03-01T10:00:44;102922.19;;;10.90;40.92
76060;BME280;64759;52.220;5.170;2023-03-01T10:03:33;102912.84;;;10.73;40.83
76060;BME280;64759;52.220;5.170;2023-03-01T10:06:23;102903.59;;;10.83;40.73
76060;BME280;64759;52.220;5.170;2023-03-01T10:08:58;102902.47;;;10.73;40.74
76060;BME280;64759;52.220;5.170;2023-03-01T10:11:30;102904.28;;;10.57;41.06
76060;BME280;64759;52.220;5.170;2023-03-01T10:14:15;102903.88;;;10.05;41.83
76060;BME280;64759;52.220;5.170;2023-03-01T10:16:48;102892.03;;;9.40;41.67
76060;BME280;64759;52.220;5.170;2023-03-01T10:19:40;102902.63;;;8.72;43.11
76060;BME280;64759;52.220;5.170;2023-03-01T10:22:20;102901.50;;;8.26;44.12
76060;BME280;64759;52.220;5.170;2023-03-01T10:24:50;102896.69;;;7.84;45.59
76060;BME280;64759;52.220;5.170;2023-03-01T10:32:26;102877.22;;;9.28;42.57
76060;BME280;64759;52.220;5.170;2023-03-01T10:34:51;102880.31;;;9.80;40.93
76060;BME280;64759;52.220;5.170;2023-03-01T10:37:19;102875.94;;;10.26;40.47
76060;BME280;64759;52.220;5.170;2023-03-01T10:40:07;102873.69;;;10.64;39.44
76060;BME280;64759;52.220;5.170;2023-03-01T10:42:48;102874.41;;;10.94;38.98
76060;BME280;64759;52.220;5.170;2023-03-01T10:50:37;102868.13;;;11.39;38.01
76060;BME280;64759;52.220;5.170;2023-03-01T10:53:05;102857.38;;;11.31;37.46
76060;BME280;64759;52.220;5.170;2023-03-01T10:55:41;102864.88;;;11.35;37.77
76060;BME280;64759;52.220;5.170;2023-03-01T10:58:21;102858.41;;;11.28;37.37
76060;BME280;64759;52.220;5.170;2023-03-01T11:00:53;102857.06;;;11.23;38.32
76060;BME280;64759;52.220;5.170;2023-03-01T11:03:23;102852.50;;;11.26;37.99
76060;BME280;64759;52.220;5.170;2023-03-01T11:08:47;102831.50;;;11.16;37.84
76060;BME280;64759;52.220;5.170;2023-03-01T11:11:33;102822.81;;;11.18;36.95
76060;BME280;64759;52.220;5.170;2023-03-01T11:16:42;102828.38;;;11.11;38.09
76060;BME280;64759;52.220;5.170;2023-03-01T11:21:36;102815.47;;;11.24;37.59
76060;BME280;64759;52.220;5.170;2023-03-01T11:24:05;102813.16;;;11.46;37.22
76060;BME280;64759;52.220;5.170;2023-03-01T11:26:37;102813.09;;;11.34;36.70
76060;BME280;64759;52.220;5.170;2023-03-01T11:29:10;102805.44;;;11.32;36.70
76060;BME280;64759;52.220;5.170;2023-03-01T11:31:37;102799.06;;;11.24;36.47
76060;BME280;64759;52.220;5.170;2023-03-01T11:35:08;102810.72;;;11.31;37.42
76060;BME280;64759;52.220;5.170;2023-03-01T11:37:15;102806.78;;;11.38;36.72
76060;BME280;64759;52.220;5.170;2023-03-01T11:39:54;102804.19;;;11.64;36.87
76060;BME280;64759;52.220;5.170;2023-03-01T11:45:10;102797.41;;;11.49;35.82
76060;BME280;64759;52.220;5.170;2023-03-01T11:48:09;102795.88;;;11.33;36.65
76060;BME280;64759;52.220;5.170;2023-03-01T11:50:46;102793.84;;;11.50;36.66
76060;BME280;64759;52.220;5.170;2023-03-01T11:53:54;102792.00;;;11.26;37.15
76060;BME280;64759;52.220;5.170;2023-03-01T11:56:31;102786.75;;;11.27;37.21
76060;BME280;64759;52.220;5.170;2023-03-01T12:02:32;102789.78;;;10.66;37.71
76060;BME280;64759;52.220;5.170;2023-03-01T12:07:34;102791.13;;;10.15;38.23
76060;BME280;64759;52.220;5.170;2023-03-01T12:10:20;102777.50;;;9.98;38.92
76060;BME280;64759;52.220;5.170;2023-03-01T12:18:26;102773.84;;;9.72;39.66
76060;BME280;64759;52.220;5.170;2023-03-01T12:21:05;102759.25;;;9.71;40.76
76060;BME280;64759;52.220;5.170;2023-03-01T12:23:58;102765.81;;;9.76;41.44
76060;BME280;64759;52.220;5.170;2023-03-01T12:26:36;102762.78;;;9.70;40.55
76060;BME280;64759;52.220;5.170;2023-03-01T12:29:25;102766.56;;;9.78;40.54
76060;BME280;64759;52.220;5.170;2023-03-01T12:37:31;102756.31;;;9.47;40.52
76060;BME280;64759;52.220;5.170;2023-03-01T12:43:03;102745.25;;;9.30;39.81
76060;BME280;64759;52.220;5.170;2023-03-01T12:45:48;102752.03;;;9.16;40.56
76060;BME280;64759;52.220;5.170;2023-03-01T12:51:09;102732.13;;;9.18;40.68
76060;BME280;64759;52.220;5.170;2023-03-01T12:53:40;102738.19;;;9.33;40.65
76060;BME280;64759;52.220;5.170;2023-03-01T12:56:09;102745.53;;;9.55;39.75
76060;BME280;64759;52.220;5.170;2023-03-01T12:58:58;102739.53;;;9.54;38.88
76060;BME280;64759;52.220;5.170;2023-03-01T13:01:44;102740.38;;;9.55;39.43
76060;BME280;64759;52.220;5.170;2023-03-01T13:07:23;102732.19;;;9.91;38.42
76060;BME280;64759;52.220;5.170;2023-03-01T13:46:49;102665.72;;;12.03;34.99
76060;BME280;64759;52.220;5.170;2023-03-01T13:49:21;102653.81;;;12.61;34.47
76060;BME280;64759;52.220;5.170;2023-03-01T13:51:49;102662.28;;;12.75;34.33
76060;BME280;64759;52.220;5.170;2023-03-01T13:54:25;102644.66;;;12.68;34.24
76060;BME280;64759;52.220;5.170;2023-03-01T13:56:51;102645.31;;;12.59;34.37
76060;BME280;64759;52.220;5.170;2023-03-01T13:59:20;102639.06;;;11.89;34.83
76060;BME280;64759;52.220;5.170;2023-03-01T14:01:52;102633.75;;;11.52;35.43
76060;BME280;64759;52.220;5.170;2023-03-01T14:04:20;102635.41;;;11.53;35.62
76060;BME280;64759;52.220;5.170;2023-03-01T14:06:46;102622.22;;;11.94;35.34
76060;BME280;64759;52.220;5.170;2023-03-01T14:09:27;102625.75;;;11.93;35.22
76060;BME280;64759;52.220;5.170;2023-03-01T14:12:36;102631.09;;;11.79;35.57
76060;BME280;64759;52.220;5.170;2023-03-01T14:20:17;102616.59;;;12.13;34.55
76060;BME280;64759;52.220;5.170;2023-03-01T14:22:44;102606.84;;;12.04;34.28
76060;BME280;64759;52.220;5.170;2023-03-01T14:25:20;102591.50;;;11.88;35.02
76060;BME280;64759;52.220;5.170;2023-03-01T14:27:51;102588.78;;;11.90;34.74
76060;BME280;64759;52.220;5.170;2023-03-01T14:30:22;102598.16;;;11.54;34.87
76060;BME280;64759;52.220;5.170;2023-03-01T14:32:53;102587.88;;;11.65;35.09
76060;BME280;64759;52.220;5.170;2023-03-01T14:35:22;102585.63;;;11.73;35.19
76060;BME280;64759;52.220;5.170;2023-03-01T14:37:48;102577.84;;;11.73;35.05
76060;BME280;64759;52.220;5.170;2023-03-01T14:42:52;102587.28;;;11.24;35.72
76060;BME280;64759;52.220;5.170;2023-03-01T14:45:18;102580.09;;;11.02;35.95
76060;BME280;64759;52.220;5.170;2023-03-01T14:47:44;102573.69;;;11.08;36.74
76060;BME280;64759;52.220;5.170;2023-03-01T14:50:30;102575.63;;;10.92;36.53
76060;BME280;64759;52.220;5.170;2023-03-01T14:53:02;102577.47;;;10.90;37.36
76060;BME280;64759;52.220;5.170;2023-03-01T14:55:32;102571.75;;;10.72;37.40
76060;BME280;64759;52.220;5.170;2023-03-01T14:57:58;102573.31;;;10.48;37.56